createdAt,value
2023-01-23T00:01:54.119Z,10.50
2023-01-23T00:04:21.686Z,11.00
2023-01-23T00:06:50.984Z,9.93
2023-01-23T00:09:22.790Z,10.20
2023-01-23T00:11:50.430Z,10.88
2023-01-23T00:14:18.008Z,10.07
2023-01-23T00:16:44.873Z,9.65
2023-01-23T00:19:12.068Z,10.60
2023-01-23T00:21:39.619Z,10.63
2023-01-23T00:24:07.496Z,10.32
2023-01-23T00:26:35.092Z,10.88
2023-01-23T00:29:02.930Z,10.07
2023-01-23T00:31:35.759Z,11.00
2023-01-23T00:34:05.801Z,12.00
2023-01-23T00:36:37.865Z,11.40
2023-01-23T00:39:10.337Z,11.02
2023-01-23T00:41:37.306Z,10.75
2023-01-23T00:44:04.803Z,9.63
2023-01-23T00:46:32.285Z,11.48
2023-01-23T00:48:59.033Z,11.05
2023-01-23T00:51:28.611Z,10.38
2023-01-23T00:53:55.691Z,10.45
2023-01-23T00:56:24.870Z,10.90
2023-01-23T00:58:52.065Z,10.95
2023-01-23T01:01:19.843Z,10.85
2023-01-23T01:03:46.975Z,10.40
2023-01-23T01:06:15.518Z,10.10
2023-01-23T01:08:45.308Z,11.35
2023-01-23T01:11:12.658Z,10.95
2023-01-23T01:13:39.765Z,11.25
2023-01-23T01:16:07.929Z,10.25
2023-01-23T01:18:38.008Z,10.95
2023-01-23T01:21:10.102Z,11.00
2023-01-23T01:23:38.000Z,9.90
2023-01-23T01:26:08.268Z,11.65
2023-01-23T01:28:37.021Z,11.80
2023-01-23T01:31:13.116Z,10.60
2023-01-23T01:33:44.805Z,10.95
2023-01-23T01:36:14.002Z,11.15
2023-01-23T01:38:41.547Z,10.82
2023-01-23T01:41:11.935Z,11.18
2023-01-23T01:43:42.251Z,10.93
2023-01-23T01:46:23.004Z,10.73
2023-01-23T01:49:11.991Z,10.93
2023-01-23T01:51:57.553Z,10.70
2023-01-23T01:54:54.706Z,11.40
2023-01-23T01:57:24.520Z,10.73
2023-01-23T01:59:59.723Z,10.88
2023-01-23T02:02:36.017Z,9.18
2023-01-23T02:05:14.628Z,11.13
2023-01-23T02:07:46.970Z,10.30
2023-01-23T02:10:17.231Z,11.60
2023-01-23T02:12:51.380Z,10.05
2023-01-23T02:15:20.606Z,10.60
2023-01-23T02:17:48.853Z,11.13
2023-01-23T02:20:26.743Z,11.77
2023-01-23T02:23:14.176Z,11.55
2023-01-23T02:25:44.197Z,10.07
2023-01-23T02:28:12.379Z,11.45
2023-01-23T02:30:41.316Z,11.88
2023-01-23T02:33:14.534Z,11.52
2023-01-23T02:35:41.749Z,11.85
2023-01-23T02:38:10.185Z,12.30
2023-01-23T02:40:40.921Z,12.75
2023-01-23T02:43:10.164Z,11.50
2023-01-23T02:45:37.754Z,10.68
2023-01-23T02:48:06.737Z,11.35
2023-01-23T02:50:33.720Z,11.65
2023-01-23T02:53:01.363Z,11.30
2023-01-23T02:55:33.433Z,11.05
2023-01-23T02:58:21.551Z,11.43
2023-01-23T03:00:48.818Z,10.77
2023-01-23T03:03:16.468Z,12.38
2023-01-23T03:05:43.663Z,12.65
2023-01-23T03:08:14.527Z,11.05
2023-01-23T03:10:41.697Z,11.57
2023-01-23T03:13:12.443Z,11.80
2023-01-23T03:15:41.363Z,11.23
2023-01-23T03:18:09.109Z,11.77
2023-01-23T03:20:42.875Z,11.95
2023-01-23T03:23:09.650Z,11.68
2023-01-23T03:25:36.526Z,12.27
2023-01-23T03:28:04.548Z,11.57
2023-01-23T03:30:34.332Z,12.30
2023-01-23T03:33:01.178Z,11.13
2023-01-23T03:35:28.383Z,11.73
2023-01-23T03:37:55.147Z,11.48
2023-01-23T03:40:46.056Z,11.05
2023-01-23T03:43:13.029Z,10.57
2023-01-23T03:45:40.160Z,12.45
2023-01-23T03:48:07.239Z,11.82
2023-01-23T03:50:34.202Z,11.90
2023-01-23T03:53:01.269Z,12.43
2023-01-23T03:55:28.680Z,12.57
2023-01-23T03:57:58.745Z,12.07
2023-01-23T04:00:25.604Z,11.88
2023-01-23T04:02:53.145Z,12.05
2023-01-23T04:05:22.787Z,12.05
2023-01-23T04:07:50.115Z,11.85
2023-01-23T04:10:18.417Z,12.10
2023-01-23T04:12:45.539Z,11.95
2023-01-23T04:15:13.107Z,11.10
2023-01-23T04:17:42.265Z,11.30
2023-01-23T04:20:10.837Z,12.15
2023-01-23T04:22:41.057Z,12.07
2023-01-23T04:25:08.358Z,12.38
2023-01-23T04:27:35.371Z,12.43
2023-01-23T04:30:02.799Z,11.68
2023-01-23T04:32:29.859Z,12.43
2023-01-23T04:34:57.232Z,11.98
2023-01-23T04:37:24.454Z,11.43
2023-01-23T04:39:51.709Z,11.82
2023-01-23T04:42:18.782Z,13.10
2023-01-23T04:44:46.149Z,12.60
2023-01-23T04:47:13.122Z,12.80
2023-01-23T04:49:40.230Z,12.70
2023-01-23T04:52:10.579Z,12.48
2023-01-23T04:54:37.713Z,12.65
2023-01-23T04:57:05.701Z,11.77
2023-01-23T04:59:35.900Z,11.85
2023-01-23T05:02:03.091Z,12.55
2023-01-23T05:04:29.973Z,11.60
2023-01-23T05:06:59.225Z,12.57
2023-01-23T05:09:26.278Z,12.95
2023-01-23T05:11:56.034Z,12.50
2023-01-23T05:14:25.654Z,12.07
2023-01-23T05:16:55.445Z,11.30
2023-01-23T05:19:22.575Z,12.65
2023-01-23T05:21:49.870Z,12.02
2023-01-23T05:24:17.279Z,12.27
2023-01-23T05:26:45.547Z,11.80
2023-01-23T05:29:15.658Z,13.02
2023-01-23T05:31:43.301Z,11.73
2023-01-23T05:34:10.203Z,12.25
2023-01-23T05:36:37.804Z,12.02
2023-01-23T05:39:05.356Z,12.68
2023-01-23T05:41:32.199Z,13.13
2023-01-23T05:43:59.395Z,12.70
2023-01-23T05:46:26.597Z,12.07
2023-01-23T05:48:53.942Z,11.93
2023-01-23T05:54:31.469Z,12.80
2023-01-23T05:56:58.735Z,11.85
2023-01-23T05:59:25.745Z,12.63
2023-01-23T06:02:03.263Z,13.00
2023-01-23T06:04:29.989Z,13.15
2023-01-23T06:06:57.049Z,12.82
2023-01-23T06:09:24.220Z,12.85
2023-01-23T06:11:51.304Z,13.18
2023-01-23T06:14:18.368Z,12.88
2023-01-23T06:16:45.133Z,13.82
2023-01-23T06:19:13.302Z,13.02
2023-01-23T06:21:40.241Z,13.55
2023-01-23T06:24:07.490Z,13.13
2023-01-23T06:26:34.687Z,14.20
2023-01-23T06:29:01.734Z,14.63
2023-01-23T06:31:32.963Z,13.50
2023-01-23T06:34:05.939Z,13.35
2023-01-23T06:36:34.300Z,13.90
2023-01-23T06:39:01.802Z,12.85
2023-01-23T06:41:28.917Z,12.45
2023-01-23T06:43:56.008Z,13.18
2023-01-23T06:46:23.074Z,13.52
2023-01-23T06:48:50.267Z,13.65
2023-01-23T06:51:17.328Z,15.23
2023-01-23T06:53:47.245Z,12.88
2023-01-23T06:56:14.542Z,13.75
2023-01-23T06:58:48.890Z,13.73
2023-01-23T07:01:18.213Z,14.07
2023-01-23T07:03:51.804Z,13.35
2023-01-23T07:06:20.995Z,13.30
2023-01-23T07:08:48.315Z,13.40
2023-01-23T07:11:15.552Z,12.60
2023-01-23T07:13:42.625Z,13.35
2023-01-23T07:16:09.741Z,12.63
2023-01-23T07:18:36.944Z,12.30
2023-01-23T07:21:09.946Z,14.05
2023-01-23T07:23:36.952Z,13.15
2023-01-23T07:26:10.955Z,13.68
2023-01-23T07:28:39.468Z,13.43
2023-01-23T07:31:06.705Z,12.70
2023-01-23T07:33:33.747Z,12.93
2023-01-23T07:36:00.864Z,12.73
2023-01-23T07:38:31.951Z,13.93
2023-01-23T07:41:06.314Z,13.43
2023-01-23T07:43:33.257Z,13.25
2023-01-23T07:46:05.901Z,12.55
2023-01-23T07:48:32.943Z,12.52
2023-01-23T07:51:04.466Z,13.43
2023-01-23T07:53:32.871Z,12.52
2023-01-23T07:56:00.800Z,14.00
2023-01-23T07:58:27.953Z,13.50
2023-01-23T08:00:56.967Z,14.02
2023-01-23T08:03:24.051Z,13.13
2023-01-23T08:05:51.299Z,13.52
2023-01-23T08:08:18.440Z,13.65
2023-01-23T08:10:45.614Z,13.57
2023-01-23T08:13:15.093Z,13.27
2023-01-23T08:15:41.940Z,13.82
2023-01-23T08:18:09.716Z,15.10
2023-01-23T08:20:36.573Z,13.73
2023-01-23T08:23:03.392Z,13.10
2023-01-23T08:25:30.640Z,14.20
2023-01-23T08:27:57.687Z,13.93
2023-01-23T08:30:24.655Z,13.60
2023-01-23T08:32:51.718Z,14.80
2023-01-23T08:35:18.597Z,13.70
2023-01-23T08:37:45.583Z,13.25
2023-01-23T08:40:12.756Z,13.32
2023-01-23T08:42:39.486Z,13.63
2023-01-23T08:45:06.919Z,13.38
2023-01-23T08:47:39.651Z,12.98
2023-01-23T08:50:07.119Z,12.50
2023-01-23T08:52:35.613Z,13.63
2023-01-23T08:55:02.757Z,13.40
2023-01-23T08:57:30.160Z,13.82
2023-01-23T08:59:57.188Z,13.63
2023-01-23T09:02:24.240Z,14.07
2023-01-23T09:04:51.145Z,13.38
2023-01-23T09:07:17.864Z,14.20
2023-01-23T09:09:44.543Z,13.68
2023-01-23T09:12:11.389Z,13.38
2023-01-23T09:14:38.080Z,13.93
2023-01-23T09:17:05.909Z,14.80
2023-01-23T09:19:33.181Z,14.18
2023-01-23T09:21:59.971Z,14.70
2023-01-23T09:24:26.817Z,14.25
2023-01-23T09:27:00.832Z,14.23
2023-01-23T09:29:27.766Z,14.63
2023-01-23T09:31:54.701Z,12.82
2023-01-23T09:34:21.354Z,14.32
2023-01-23T09:36:48.221Z,13.25
2023-01-23T09:39:18.164Z,14.15
2023-01-23T09:41:45.299Z,14.05
2023-01-23T09:44:25.347Z,13.55
2023-01-23T09:47:16.652Z,13.43
2023-01-23T09:49:47.634Z,13.65
2023-01-23T09:52:19.525Z,14.05
2023-01-23T09:54:48.161Z,14.45
2023-01-23T09:57:23.920Z,12.70
2023-01-23T10:00:16.475Z,14.65
2023-01-23T10:02:44.566Z,13.52
2023-01-23T10:05:19.481Z,13.60
2023-01-23T10:07:52.979Z,13.88
2023-01-23T10:10:44.902Z,13.57
2023-01-23T10:13:17.737Z,14.57
2023-01-23T10:16:09.336Z,14.10
2023-01-23T10:18:43.369Z,12.93
2023-01-23T10:21:34.757Z,14.40
2023-01-23T10:24:21.871Z,13.95
2023-01-23T10:26:49.727Z,13.13
2023-01-23T10:29:27.823Z,14.07
2023-01-23T10:31:57.469Z,14.32
2023-01-23T10:34:50.093Z,14.60
2023-01-23T10:37:20.066Z,13.60
2023-01-23T10:39:53.580Z,14.27
2023-01-23T10:42:23.092Z,14.63
2023-01-23T10:44:50.161Z,14.52
2023-01-23T10:47:59.877Z,12.77
2023-01-23T10:50:39.648Z,14.98
2023-01-23T10:53:08.913Z,13.98
2023-01-23T10:55:38.355Z,15.05
2023-01-23T10:58:07.204Z,14.90
2023-01-23T11:00:36.171Z,14.85
2023-01-23T11:03:26.572Z,14.40
2023-01-23T11:06:08.661Z,13.88
2023-01-23T11:09:00.950Z,14.13
2023-01-23T11:11:30.525Z,13.73
2023-01-23T11:14:21.801Z,13.23
2023-01-23T11:17:00.751Z,14.50
2023-01-23T11:19:27.668Z,13.10
2023-01-23T11:22:05.035Z,13.30
2023-01-23T11:24:40.776Z,13.27
2023-01-23T11:27:26.767Z,13.07
2023-01-23T11:30:08.950Z,13.05
2023-01-23T11:32:43.723Z,13.35
2023-01-23T11:35:15.884Z,13.02
2023-01-23T11:37:43.062Z,13.95
2023-01-23T11:40:20.628Z,13.88
2023-01-23T11:42:47.614Z,13.30
2023-01-23T11:45:36.104Z,14.25
2023-01-23T11:48:17.648Z,14.73
2023-01-23T11:50:55.415Z,13.75
2023-01-23T11:54:08.362Z,13.98
2023-01-23T11:57:02.231Z,13.68
2023-01-23T11:59:45.396Z,12.65
2023-01-23T12:02:39.695Z,13.50
2023-01-23T12:05:15.036Z,12.60
2023-01-23T12:07:51.854Z,13.15
2023-01-23T12:10:32.665Z,12.98
2023-01-23T12:13:37.919Z,13.65
2023-01-23T12:16:21.338Z,13.10
2023-01-23T12:19:10.120Z,13.82
2023-01-23T12:21:51.842Z,13.57
2023-01-23T12:24:27.543Z,13.60
2023-01-23T12:27:03.262Z,14.48
2023-01-23T12:29:44.031Z,13.88
2023-01-23T12:32:33.748Z,13.18
2023-01-23T12:35:16.566Z,13.05
2023-01-23T12:38:15.706Z,13.32
2023-01-23T12:40:57.879Z,12.23
2023-01-23T12:43:38.888Z,11.73
2023-01-23T12:46:13.313Z,12.45
2023-01-23T12:48:46.997Z,11.35
2023-01-23T12:51:19.429Z,11.00
2023-01-23T12:53:51.221Z,10.48
2023-01-23T12:56:23.377Z,10.07
2023-01-23T12:59:08.472Z,9.32
2023-01-23T13:02:12.779Z,9.48
2023-01-23T13:04:47.386Z,9.57
2023-01-23T13:07:35.610Z,10.20
2023-01-23T13:10:21.229Z,8.77
2023-01-23T13:12:48.835Z,9.05
2023-01-23T13:15:27.780Z,8.77
2023-01-23T13:18:04.022Z,9.98
2023-01-23T13:20:52.454Z,8.70
2023-01-23T13:23:32.367Z,9.88
2023-01-23T13:26:17.471Z,9.93
2023-01-23T13:28:46.205Z,9.68
2023-01-23T13:31:41.775Z,9.35
2023-01-23T13:34:17.906Z,7.70
2023-01-23T13:36:46.457Z,9.23
2023-01-23T13:39:21.502Z,8.77
2023-01-23T13:41:49.195Z,8.18
2023-01-23T13:44:40.164Z,8.68
2023-01-23T14:21:44.724Z,7.45
2023-01-23T14:24:26.619Z,7.28
2023-01-23T14:27:07.014Z,7.88
2023-01-23T14:29:34.836Z,7.65
2023-01-23T14:32:01.504Z,8.13
2023-01-23T14:34:28.340Z,7.90
2023-01-23T14:37:01.597Z,7.72
2023-01-23T14:39:29.720Z,8.32
2023-01-23T14:42:02.036Z,8.50
2023-01-23T14:44:47.397Z,7.90
2023-01-23T14:47:19.587Z,7.43
2023-01-23T14:49:47.273Z,7.72
2023-01-23T14:52:29.094Z,7.60
2023-01-23T14:55:05.814Z,7.95
2023-01-23T14:57:35.643Z,6.43
2023-01-23T15:00:03.851Z,7.88
2023-01-23T15:02:33.740Z,7.63
2023-01-23T15:05:15.563Z,7.50
2023-01-23T15:07:48.079Z,7.13
2023-01-23T15:10:17.184Z,7.88
2023-01-23T15:12:57.245Z,8.00
2023-01-23T15:15:26.629Z,7.38
2023-01-23T15:17:54.229Z,7.20
2023-01-23T15:20:32.182Z,7.78
2023-01-23T15:23:00.514Z,7.50
2023-01-23T15:25:35.641Z,6.78
2023-01-23T15:28:09.746Z,7.10
2023-01-23T15:30:36.496Z,7.45
2023-01-23T15:33:10.228Z,6.97
2023-01-23T15:35:39.021Z,7.72
2023-01-23T15:38:08.629Z,7.72
2023-01-23T15:40:38.334Z,6.85
2023-01-23T15:43:13.448Z,7.95
2023-01-23T15:45:40.182Z,7.75
2023-01-23T15:48:07.177Z,7.40
2023-01-23T15:50:33.939Z,7.90
2023-01-23T15:53:00.694Z,7.68
2023-01-23T15:55:31.343Z,7.72
2023-01-23T15:57:57.957Z,7.35
2023-01-23T16:00:29.696Z,7.10
2023-01-23T16:02:59.894Z,7.70
2023-01-23T16:05:30.574Z,8.85
2023-01-23T16:07:58.061Z,8.20
2023-01-23T16:10:26.945Z,7.97
2023-01-23T16:12:57.501Z,7.57
2023-01-23T16:15:33.079Z,8.82
2023-01-23T16:18:00.794Z,7.85
2023-01-23T16:20:34.577Z,8.63
2023-01-23T16:23:14.222Z,8.18
2023-01-23T16:25:46.118Z,9.02
2023-01-23T16:28:24.428Z,8.73
2023-01-23T16:30:52.189Z,8.32
2023-01-23T16:33:20.234Z,7.93
2023-01-23T16:35:48.095Z,9.35
2023-01-23T16:38:30.227Z,7.70
2023-01-23T16:40:59.842Z,8.60
2023-01-23T16:43:27.558Z,8.43
2023-01-23T16:45:57.889Z,7.90
2023-01-23T16:48:30.537Z,8.57
2023-01-23T16:51:02.261Z,9.15
2023-01-23T16:53:31.723Z,8.02
2023-01-23T16:55:59.843Z,7.95
2023-01-23T16:58:32.057Z,8.20
2023-01-23T17:01:02.139Z,8.00
2023-01-23T17:03:32.900Z,8.65
2023-01-23T17:05:59.990Z,8.43
2023-01-23T17:08:27.450Z,8.82
2023-01-23T17:10:58.700Z,8.38
2023-01-23T17:13:28.291Z,8.45
2023-01-23T17:15:59.077Z,8.07
2023-01-23T17:18:28.187Z,7.40
2023-01-23T17:20:55.334Z,8.00
2023-01-23T17:23:23.075Z,7.63
2023-01-23T17:26:00.425Z,7.10
2023-01-23T17:28:28.697Z,7.93
2023-01-23T17:30:58.983Z,7.20
2023-01-23T17:33:28.394Z,7.78
2023-01-23T17:35:55.250Z,7.72
2023-01-23T17:38:28.635Z,7.07
2023-01-23T17:40:57.355Z,8.35
2023-01-23T17:43:24.228Z,8.40
2023-01-23T17:45:51.493Z,8.02
2023-01-23T17:48:25.803Z,8.48
2023-01-23T17:50:52.581Z,7.20
2023-01-23T17:53:19.743Z,8.13
2023-01-23T17:55:49.467Z,7.75
2023-01-23T17:58:18.162Z,7.93
2023-01-23T18:00:49.231Z,7.47
2023-01-23T18:03:19.744Z,8.10
2023-01-23T18:05:46.583Z,7.90
2023-01-23T18:08:15.261Z,8.05
2023-01-23T18:10:46.392Z,7.75
2023-01-23T18:13:21.805Z,7.68
2023-01-23T18:16:12.178Z,6.82
2023-01-23T18:18:40.746Z,7.95
2023-01-23T18:21:18.100Z,8.65
2023-01-23T18:23:47.963Z,8.23
2023-01-23T18:26:36.492Z,7.63
2023-01-23T18:29:18.109Z,7.75
2023-01-23T18:32:15.229Z,7.15
2023-01-23T18:34:55.930Z,7.43
2023-01-23T18:37:59.464Z,7.80
2023-01-23T18:41:03.228Z,8.30
2023-01-23T18:43:38.792Z,8.52
2023-01-23T18:46:10.446Z,7.60
2023-01-23T18:48:45.490Z,7.55
2023-01-23T18:51:27.295Z,7.80
2023-01-23T18:54:22.853Z,7.93
2023-01-23T18:56:52.666Z,7.45
2023-01-23T18:59:24.156Z,8.75
2023-01-23T19:01:57.653Z,7.28
2023-01-23T19:04:38.662Z,6.95
2023-01-23T19:07:18.882Z,7.88
2023-01-23T19:09:47.068Z,7.65
2023-01-23T19:12:27.669Z,7.30
2023-01-23T19:15:23.773Z,7.78
2023-01-23T19:18:12.021Z,7.30
2023-01-23T19:20:57.283Z,7.15
2023-01-23T19:23:35.332Z,8.02
2023-01-23T19:26:02.399Z,7.53
2023-01-23T19:28:29.378Z,7.25
2023-01-23T19:30:56.813Z,7.82
2023-01-23T19:33:26.886Z,6.90
2023-01-23T19:35:56.650Z,8.25
2023-01-23T19:38:23.630Z,7.72
2023-01-23T19:40:50.782Z,7.40
2023-01-23T19:43:18.037Z,7.22
2023-01-23T19:45:45.269Z,7.75
2023-01-23T19:48:15.013Z,7.05
2023-01-23T19:50:44.244Z,6.90
2023-01-23T19:53:14.116Z,8.05
2023-01-23T19:55:40.991Z,7.32
2023-01-23T19:58:08.503Z,8.00
2023-01-23T20:00:36.411Z,7.20
2023-01-23T20:03:05.180Z,6.95
2023-01-23T20:05:32.415Z,7.13
2023-01-23T20:07:59.333Z,6.88
2023-01-23T20:10:26.108Z,7.53
2023-01-23T20:12:54.516Z,7.80
2023-01-23T20:15:23.959Z,7.85
2023-01-23T20:17:52.486Z,8.43
2023-01-23T20:20:20.499Z,8.15
2023-01-23T20:22:47.518Z,7.40
2023-01-23T20:25:16.273Z,7.30
2023-01-23T20:27:43.996Z,6.85
2023-01-23T20:30:16.531Z,6.93
2023-01-23T20:32:43.631Z,7.53
2023-01-23T20:35:10.605Z,7.32
2023-01-23T20:37:37.521Z,7.70
2023-01-23T20:40:04.645Z,9.18
2023-01-23T20:42:31.355Z,13.07
2023-01-23T20:44:58.107Z,7.35
2023-01-23T20:47:25.935Z,8.27
2023-01-23T20:49:52.956Z,8.93
2023-01-23T20:52:41.210Z,8.20
2023-01-23T20:55:08.344Z,8.00
2023-01-23T20:57:53.447Z,8.05
2023-01-23T21:00:25.907Z,8.40
2023-01-23T21:02:55.469Z,7.75
2023-01-23T21:05:22.733Z,7.40
2023-01-23T21:07:49.995Z,7.30
2023-01-23T21:10:16.896Z,8.48
2023-01-23T21:12:43.667Z,8.45
2023-01-23T21:15:16.168Z,7.80
2023-01-23T21:17:43.194Z,8.20
2023-01-23T21:20:10.684Z,7.63
2023-01-23T21:22:37.529Z,7.97
2023-01-23T21:25:04.639Z,8.88
2023-01-23T21:27:31.384Z,7.75
2023-01-23T21:29:58.244Z,8.77
2023-01-23T21:32:27.504Z,8.38
2023-01-23T21:34:57.194Z,8.20
2023-01-23T21:37:24.712Z,8.25
2023-01-23T21:39:51.575Z,8.57
2023-01-23T21:42:18.141Z,8.98
2023-01-23T21:44:44.748Z,8.50
2023-01-23T21:47:14.427Z,8.25
2023-01-23T21:49:43.966Z,8.35
2023-01-23T21:52:10.900Z,8.52
2023-01-23T21:54:38.364Z,8.55
2023-01-23T21:57:05.105Z,9.40
2023-01-23T21:59:31.728Z,9.45
2023-01-23T22:01:58.409Z,8.20
2023-01-23T22:04:25.808Z,9.43
2023-01-23T22:06:55.440Z,8.63
2023-01-23T22:09:24.959Z,8.55
2023-01-23T22:11:51.945Z,8.45
2023-01-23T22:14:18.741Z,8.80
2023-01-23T22:16:50.345Z,8.40
2023-01-23T22:19:21.031Z,9.40
2023-01-23T22:21:52.419Z,8.60
2023-01-23T22:24:19.186Z,7.97
2023-01-23T22:26:45.858Z,8.23
2023-01-23T22:29:15.598Z,8.23
2023-01-23T22:31:42.757Z,7.82
2023-01-23T22:34:09.943Z,8.88
2023-01-23T22:36:36.833Z,9.02
2023-01-23T22:39:03.813Z,9.07
2023-01-23T22:41:43.875Z,9.45
2023-01-23T22:44:11.981Z,8.90
2023-01-23T22:46:38.834Z,8.85
2023-01-23T22:49:05.688Z,8.50
2023-01-23T22:51:32.382Z,8.30
2023-01-23T22:53:59.172Z,9.13
2023-01-23T22:56:26.930Z,10.32
2023-01-23T22:58:54.965Z,9.68
2023-01-23T23:01:27.487Z,9.48
2023-01-23T23:03:56.849Z,9.40
2023-01-23T23:06:24.234Z,9.63
2023-01-23T23:08:50.957Z,8.57
2023-01-23T23:11:22.987Z,10.70
2023-01-23T23:13:50.150Z,9.75
2023-01-23T23:16:22.703Z,10.25
2023-01-23T23:18:51.558Z,9.60
2023-01-23T23:21:24.963Z,10.63
2023-01-23T23:23:52.377Z,9.55
2023-01-23T23:26:19.299Z,10.07
2023-01-23T23:28:46.083Z,9.95
2023-01-23T23:31:12.943Z,9.20
2023-01-23T23:33:40.097Z,9.82
2023-01-23T23:36:07.521Z,9.07
2023-01-23T23:38:34.376Z,10.68
2023-01-23T23:41:03.285Z,9.35
2023-01-23T23:43:30.202Z,10.45
2023-01-23T23:45:59.454Z,10.52
2023-01-23T23:48:29.153Z,9.98
2023-01-23T23:50:57.015Z,10.35
2023-01-23T23:53:23.625Z,10.38
2023-01-23T23:55:50.331Z,10.18
2023-01-23T23:58:17.164Z,10.85
